createdAt,value
2023-03-29T00:03:04.225Z,-1.25
2023-03-29T00:05:57.628Z,-1.27
2023-03-29T00:08:51.074Z,-1.31
2023-03-29T00:11:41.897Z,-1.34
2023-03-29T00:14:32.460Z,-1.33
2023-03-29T00:17:23.223Z,-1.29
2023-03-29T00:20:14.456Z,-1.27
2023-03-29T00:23:05.055Z,-1.25
2023-03-29T00:25:56.478Z,-1.25
2023-03-29T00:28:47.491Z,-1.24
2023-03-29T00:31:38.037Z,-1.26
2023-03-29T00:34:31.027Z,-1.26
2023-03-29T00:37:22.683Z,-1.30
2023-03-29T00:40:15.484Z,-1.34
2023-03-29T00:43:06.505Z,-1.37
2023-03-29T00:45:57.220Z,-1.38
2023-03-29T00:48:47.759Z,-1.41
2023-03-29T00:51:38.927Z,-1.43
2023-03-29T00:54:31.036Z,-1.48
2023-03-29T00:57:21.701Z,-1.53
2023-03-29T01:00:15.478Z,-1.58
2023-03-29T01:03:09.194Z,-1.60
2023-03-29T01:06:01.405Z,-1.61
2023-03-29T01:08:54.087Z,-1.62
2023-03-29T01:11:47.120Z,-1.62
2023-03-29T01:14:39.576Z,-1.65
2023-03-29T01:17:31.772Z,-1.69
2023-03-29T01:20:24.934Z,-1.74
2023-03-29T01:23:27.421Z,-1.75
2023-03-29T01:26:20.547Z,-1.75
2023-03-29T01:29:12.687Z,-1.71
2023-03-29T01:32:06.086Z,-1.72
2023-03-29T01:34:58.750Z,-1.70
2023-03-29T01:37:51.754Z,-1.69
2023-03-29T01:40:42.529Z,-1.70
2023-03-29T01:43:34.861Z,-1.70
2023-03-29T01:46:28.662Z,-1.73
2023-03-29T01:49:23.685Z,-1.78
2023-03-29T01:52:17.006Z,-1.80
2023-03-29T01:55:13.132Z,-1.79
2023-03-29T01:58:05.769Z,-1.82
2023-03-29T02:00:56.573Z,-1.86
2023-03-29T02:03:50.847Z,-1.88
2023-03-29T02:06:41.511Z,-1.89
2023-03-29T02:09:32.577Z,-1.91
2023-03-29T02:12:24.254Z,-1.93
2023-03-29T02:15:16.562Z,-1.95
2023-03-29T02:18:07.600Z,-1.95
2023-03-29T02:20:59.038Z,-1.95
2023-03-29T02:23:50.054Z,-1.91
2023-03-29T02:26:40.884Z,-1.92
2023-03-29T02:29:31.689Z,-1.95
2023-03-29T02:32:23.051Z,-1.95
2023-03-29T02:35:15.301Z,-1.94
2023-03-29T02:38:07.164Z,-1.91
2023-03-29T02:40:58.101Z,-1.89
2023-03-29T02:43:48.773Z,-1.87
2023-03-29T02:46:39.898Z,-1.84
2023-03-29T02:49:30.393Z,-1.81
2023-03-29T02:52:22.982Z,-1.79
2023-03-29T02:55:15.841Z,-1.74
2023-03-29T02:58:08.539Z,-1.77
2023-03-29T03:01:00.498Z,-1.76
2023-03-29T03:03:52.209Z,-1.80
2023-03-29T03:06:43.138Z,-1.84
2023-03-29T03:09:34.365Z,-1.86
2023-03-29T03:12:25.333Z,-1.91
2023-03-29T03:15:16.191Z,-1.96
2023-03-29T03:18:07.132Z,-2.00
2023-03-29T03:21:02.006Z,-2.03
2023-03-29T03:23:53.558Z,-2.06
2023-03-29T03:26:46.458Z,-2.14
2023-03-29T03:29:38.645Z,-2.17
2023-03-29T03:36:02.897Z,-2.29
2023-03-29T03:38:54.358Z,-2.35
2023-03-29T03:41:44.974Z,-2.38
2023-03-29T03:44:35.605Z,-2.40
2023-03-29T03:47:38.498Z,-2.43
2023-03-29T03:50:41.717Z,-2.48
2023-03-29T03:53:32.499Z,-2.52
2023-03-29T03:56:35.204Z,-2.53
2023-03-29T03:59:28.836Z,-2.55
2023-03-29T04:02:24.335Z,-2.60
2023-03-29T04:05:15.069Z,-2.65
2023-03-29T04:08:06.782Z,-2.63
2023-03-29T04:11:20.175Z,-2.63
2023-03-29T04:14:11.334Z,-2.63
2023-03-29T04:17:22.314Z,-2.61
2023-03-29T04:20:42.064Z,-2.64
2023-03-29T04:23:33.786Z,-2.55
2023-03-29T04:26:24.577Z,-2.50
2023-03-29T04:29:20.971Z,-2.44
2023-03-29T04:32:15.985Z,-2.42
2023-03-29T04:35:28.943Z,-2.43
2023-03-29T04:38:23.568Z,-2.44
2023-03-29T04:41:15.368Z,-2.49
2023-03-29T04:44:15.922Z,-2.48
2023-03-29T04:47:06.547Z,-2.46
2023-03-29T04:49:57.253Z,-2.42
2023-03-29T04:53:01.031Z,-2.11
2023-03-29T04:55:52.634Z,-1.65
2023-03-29T04:58:55.969Z,-1.03
2023-03-29T05:01:47.038Z,0.31
2023-03-29T05:04:37.924Z,2.84
2023-03-29T05:07:35.678Z,3.61
2023-03-29T05:10:26.497Z,2.78
2023-03-29T05:13:18.004Z,2.08
2023-03-29T05:16:11.388Z,1.42
2023-03-29T05:19:02.241Z,0.85
2023-03-29T05:21:53.190Z,0.30
2023-03-29T05:24:45.563Z,-0.15
2023-03-29T05:27:40.453Z,-0.51
2023-03-29T05:30:32.487Z,-0.76
2023-03-29T05:33:39.091Z,-0.97
2023-03-29T05:36:29.927Z,-1.14
2023-03-29T05:39:21.159Z,-1.31
2023-03-29T05:42:13.844Z,-1.43
2023-03-29T05:45:14.976Z,-1.48
2023-03-29T05:48:05.597Z,-1.54
2023-03-29T05:50:56.429Z,-1.60
2023-03-29T05:53:46.969Z,-1.61
2023-03-29T05:56:37.764Z,-1.55
2023-03-29T05:59:29.759Z,-1.16
2023-03-29T06:02:20.366Z,1.01
2023-03-29T06:05:14.894Z,3.52
2023-03-29T06:08:22.380Z,6.37
2023-03-29T06:11:27.939Z,5.71
2023-03-29T06:14:33.873Z,5.74
2023-03-29T06:17:45.981Z,9.02
2023-03-29T06:20:36.642Z,11.75
2023-03-29T06:23:33.000Z,13.61
2023-03-29T06:26:24.072Z,15.68
2023-03-29T06:29:15.000Z,18.49
2023-03-29T06:32:05.605Z,21.36
2023-03-29T06:35:15.073Z,24.20
2023-03-29T06:38:12.543Z,26.46
2023-03-29T06:41:29.582Z,28.51
2023-03-29T06:44:40.193Z,30.26
2023-03-29T06:47:36.149Z,29.33
2023-03-29T06:50:27.188Z,27.40
2023-03-29T06:53:28.725Z,25.61
2023-03-29T06:56:23.942Z,23.95
2023-03-29T06:59:24.414Z,22.30
2023-03-29T07:02:37.756Z,20.46
2023-03-29T07:05:36.348Z,18.35
2023-03-29T07:08:31.554Z,16.52
2023-03-29T07:11:25.656Z,14.88
2023-03-29T07:14:19.767Z,13.09
2023-03-29T07:17:10.458Z,11.89
2023-03-29T07:20:08.368Z,10.93
2023-03-29T07:23:09.632Z,10.01
2023-03-29T07:26:01.489Z,9.31
2023-03-29T07:28:53.492Z,8.72
2023-03-29T07:31:46.109Z,8.00
2023-03-29T07:34:59.661Z,7.34
2023-03-29T07:37:58.525Z,6.97
2023-03-29T07:40:49.687Z,6.71
2023-03-29T07:43:57.813Z,6.47
2023-03-29T07:46:48.434Z,6.16
2023-03-29T07:49:39.566Z,5.95
2023-03-29T07:52:30.434Z,5.81
2023-03-29T07:55:22.300Z,5.68
2023-03-29T07:58:25.609Z,5.67
2023-03-29T08:01:18.903Z,6.27
2023-03-29T08:04:30.519Z,10.05
2023-03-29T08:07:39.640Z,13.25
2023-03-29T08:10:40.541Z,15.26
2023-03-29T08:13:51.521Z,17.21
2023-03-29T08:16:52.583Z,19.37
2023-03-29T08:19:51.180Z,20.83
2023-03-29T08:22:48.854Z,21.38
2023-03-29T08:26:16.084Z,22.03
2023-03-29T08:29:08.537Z,22.87
2023-03-29T08:32:08.899Z,23.46
2023-03-29T08:34:59.588Z,24.06
2023-03-29T08:37:56.010Z,24.33
2023-03-29T08:40:50.699Z,24.45
2023-03-29T08:43:56.447Z,24.73
2023-03-29T08:47:05.341Z,24.89
2023-03-29T08:50:00.370Z,24.94
2023-03-29T08:52:58.606Z,25.28
2023-03-29T08:56:16.534Z,25.47
2023-03-29T08:59:15.899Z,25.70
2023-03-29T09:02:07.175Z,25.88
2023-03-29T09:05:01.814Z,26.18
2023-03-29T09:08:03.144Z,26.33
2023-03-29T09:11:03.776Z,26.32
2023-03-29T09:13:58.998Z,26.08
2023-03-29T09:16:52.622Z,25.59
2023-03-29T09:19:46.142Z,25.19
2023-03-29T09:22:41.166Z,24.88
2023-03-29T09:25:53.400Z,24.62
2023-03-29T09:28:48.792Z,24.51
2023-03-29T09:31:39.553Z,24.40
2023-03-29T09:34:31.927Z,24.27
2023-03-29T09:37:29.942Z,23.90
2023-03-29T09:40:21.823Z,23.53
2023-03-29T09:43:22.983Z,23.36
2023-03-29T09:46:16.892Z,23.20
2023-03-29T09:49:17.143Z,23.10
2023-03-29T09:52:10.953Z,23.08
2023-03-29T09:55:02.092Z,23.11
2023-03-29T09:58:14.332Z,23.15
2023-03-29T10:01:10.456Z,23.05
2023-03-29T10:04:02.121Z,22.94
2023-03-29T10:06:53.218Z,22.85
2023-03-29T10:09:44.259Z,22.76
2023-03-29T10:12:39.953Z,22.62
2023-03-29T10:15:31.616Z,22.52
2023-03-29T10:18:22.083Z,22.48
2023-03-29T10:21:15.578Z,22.27
2023-03-29T10:24:06.719Z,21.81
2023-03-29T10:26:58.702Z,21.63
2023-03-29T10:29:49.052Z,21.36
2023-03-29T10:32:39.856Z,20.91
2023-03-29T10:35:33.890Z,20.96
2023-03-29T10:38:27.995Z,20.97
2023-03-29T10:41:18.677Z,20.81
2023-03-29T10:44:11.239Z,20.81
2023-03-29T10:47:16.160Z,20.86
2023-03-29T10:50:07.929Z,20.97
2023-03-29T10:52:58.350Z,20.98
2023-03-29T10:55:51.054Z,20.90
2023-03-29T10:58:48.812Z,20.84
2023-03-29T11:01:43.576Z,20.81
2023-03-29T11:04:37.758Z,20.65
2023-03-29T11:07:33.462Z,20.21
2023-03-29T11:10:32.365Z,19.99
2023-03-29T11:13:25.803Z,19.93
2023-03-29T11:16:22.758Z,19.88
2023-03-29T11:19:25.204Z,19.75
2023-03-29T11:22:18.173Z,19.63
2023-03-29T11:25:15.689Z,19.28
2023-03-29T11:28:10.089Z,19.00
2023-03-29T11:31:03.517Z,18.75
2023-03-29T11:34:01.727Z,18.43
2023-03-29T11:36:54.113Z,18.19
2023-03-29T11:39:47.552Z,18.03
2023-03-29T11:42:40.005Z,17.69
2023-03-29T11:45:34.228Z,17.27
2023-03-29T11:48:26.866Z,17.01
2023-03-29T11:51:19.723Z,16.88
2023-03-29T11:54:16.577Z,16.61
2023-03-29T11:57:08.784Z,16.30
2023-03-29T12:00:00.488Z,16.04
2023-03-29T12:02:53.274Z,15.71
2023-03-29T12:05:45.431Z,15.37
2023-03-29T12:08:36.331Z,15.15
2023-03-29T12:11:30.183Z,15.00
2023-03-29T12:14:23.704Z,14.69
2023-03-29T12:17:18.222Z,14.30
2023-03-29T12:20:16.710Z,14.09
2023-03-29T12:23:07.538Z,13.89
2023-03-29T12:26:02.423Z,13.57
2023-03-29T12:29:05.609Z,13.41
2023-03-29T12:31:59.303Z,13.22
2023-03-29T12:35:03.421Z,12.97
2023-03-29T12:38:16.859Z,12.87
2023-03-29T12:41:26.726Z,12.76
2023-03-29T12:44:36.291Z,12.48
2023-03-29T12:47:45.623Z,12.08
2023-03-29T12:50:38.093Z,11.73
2023-03-29T12:53:29.692Z,11.44
2023-03-29T12:56:23.729Z,11.24
2023-03-29T12:59:27.414Z,11.14
2023-03-29T13:02:39.385Z,11.04
2023-03-29T13:05:32.445Z,10.94
2023-03-29T13:08:34.093Z,10.87
2023-03-29T13:11:29.376Z,10.79
2023-03-29T13:14:20.588Z,10.67
2023-03-29T13:17:18.780Z,10.51
2023-03-29T13:20:15.145Z,10.39
2023-03-29T13:23:16.935Z,10.31
2023-03-29T13:26:19.812Z,10.23
2023-03-29T13:29:38.306Z,10.05
2023-03-29T13:32:40.729Z,9.96
2023-03-29T13:35:35.468Z,9.89
2023-03-29T13:38:28.758Z,9.85
2023-03-29T13:41:32.636Z,9.82
2023-03-29T13:44:36.134Z,9.83
2023-03-29T13:47:43.229Z,9.87
2023-03-29T13:50:39.984Z,9.98
2023-03-29T13:53:32.366Z,10.02
2023-03-29T13:56:25.803Z,10.07
2023-03-29T13:59:19.998Z,10.06
2023-03-29T14:02:15.398Z,10.00
2023-03-29T14:05:06.637Z,10.08
2023-03-29T14:07:57.355Z,10.11
2023-03-29T14:10:48.535Z,10.13
2023-03-29T14:13:39.530Z,10.12
2023-03-29T14:16:31.501Z,10.14
2023-03-29T14:19:26.016Z,10.18
2023-03-29T14:22:19.085Z,10.13
2023-03-29T14:25:17.237Z,10.12
2023-03-29T14:28:21.920Z,10.11
2023-03-29T14:31:23.123Z,10.13
2023-03-29T14:34:16.722Z,10.15
2023-03-29T14:37:09.164Z,10.17
2023-03-29T14:40:00.686Z,10.21
2023-03-29T14:42:51.659Z,10.26
2023-03-29T14:45:42.044Z,10.21
2023-03-29T14:48:35.453Z,10.15
2023-03-29T14:51:30.542Z,10.13
2023-03-29T14:54:22.592Z,10.11
2023-03-29T14:57:18.611Z,10.13
2023-03-29T15:00:21.301Z,10.14
2023-03-29T15:03:16.459Z,10.10
2023-03-29T15:06:08.305Z,10.07
2023-03-29T15:09:07.993Z,9.98
2023-03-29T15:12:01.363Z,9.86
2023-03-29T15:14:53.063Z,9.73
2023-03-29T15:17:51.868Z,9.66
2023-03-29T15:20:46.172Z,9.56
2023-03-29T15:23:40.539Z,9.47
2023-03-29T15:26:33.916Z,9.41
2023-03-29T15:29:34.012Z,9.40
2023-03-29T15:32:25.335Z,9.38
2023-03-29T15:35:25.807Z,9.37
2023-03-29T15:38:16.481Z,9.38
2023-03-29T15:41:08.285Z,9.37
2023-03-29T15:43:58.896Z,9.36
2023-03-29T15:46:49.936Z,9.36
2023-03-29T15:49:40.666Z,9.34
2023-03-29T15:52:32.156Z,9.29
2023-03-29T15:55:23.084Z,9.24
2023-03-29T15:58:15.743Z,9.18
2023-03-29T16:01:13.391Z,9.18
2023-03-29T16:04:05.053Z,9.13
2023-03-29T16:06:56.756Z,9.13
2023-03-29T16:09:50.888Z,9.06
2023-03-29T16:12:41.662Z,8.98
2023-03-29T16:15:33.579Z,8.94
2023-03-29T16:18:24.520Z,8.93
2023-03-29T16:21:20.307Z,8.95
2023-03-29T16:24:13.408Z,8.97
2023-03-29T16:27:12.432Z,8.97
2023-03-29T16:30:06.261Z,8.97
2023-03-29T16:32:57.207Z,8.96
2023-03-29T16:35:48.388Z,8.97
2023-03-29T16:38:39.563Z,8.97
2023-03-29T16:41:31.678Z,8.92
2023-03-29T16:44:25.923Z,8.86
2023-03-29T16:47:17.753Z,8.78
2023-03-29T16:50:12.241Z,8.73
2023-03-29T16:53:03.283Z,8.68
2023-03-29T16:55:53.871Z,8.62
2023-03-29T16:58:44.739Z,8.56
2023-03-29T17:01:36.342Z,8.50
2023-03-29T17:04:27.293Z,8.43
2023-03-29T17:07:17.892Z,8.38
2023-03-29T17:10:09.857Z,8.32
2023-03-29T17:13:00.927Z,8.28
2023-03-29T17:15:52.509Z,8.23
2023-03-29T17:18:43.622Z,8.16
2023-03-29T17:21:34.396Z,8.10
2023-03-29T17:24:24.939Z,8.04
2023-03-29T17:27:15.481Z,7.99
2023-03-29T17:30:06.335Z,7.95
2023-03-29T17:32:57.684Z,7.90
2023-03-29T17:35:48.637Z,7.83
2023-03-29T17:38:39.327Z,7.78
2023-03-29T17:41:31.335Z,7.75
2023-03-29T17:44:22.242Z,7.75
2023-03-29T17:47:15.680Z,7.74
2023-03-29T17:50:06.849Z,7.71
2023-03-29T17:52:57.546Z,7.65
2023-03-29T17:55:48.167Z,7.60
2023-03-29T17:58:41.328Z,7.55
2023-03-29T18:01:33.523Z,7.47
2023-03-29T18:08:11.365Z,7.38
2023-03-29T18:11:09.921Z,7.40
2023-03-29T18:14:01.802Z,7.41
2023-03-29T18:16:52.251Z,7.43
2023-03-29T18:19:42.742Z,7.41
2023-03-29T18:22:34.280Z,7.38
2023-03-29T18:25:25.250Z,7.36
2023-03-29T18:28:15.939Z,7.30
2023-03-29T18:31:07.057Z,7.27
2023-03-29T18:33:57.803Z,7.23
2023-03-29T18:36:51.157Z,7.20
2023-03-29T18:39:43.048Z,7.16
2023-03-29T18:42:33.852Z,7.12
2023-03-29T18:45:24.558Z,7.09
2023-03-29T18:48:15.644Z,7.06
2023-03-29T18:51:07.499Z,6.98
2023-03-29T18:53:58.467Z,6.94
2023-03-29T18:56:48.901Z,6.91
2023-03-29T18:59:39.629Z,6.89
2023-03-29T19:02:30.809Z,6.86
2023-03-29T19:05:21.642Z,6.82
2023-03-29T19:08:13.368Z,6.73
2023-03-29T19:11:04.972Z,6.62
2023-03-29T19:13:55.213Z,6.56
2023-03-29T19:16:45.929Z,6.54
2023-03-29T19:19:37.810Z,6.55
2023-03-29T19:22:28.340Z,6.56
2023-03-29T19:25:19.137Z,6.52
2023-03-29T19:28:10.485Z,6.52
2023-03-29T19:31:02.289Z,6.57
2023-03-29T19:33:53.563Z,6.61
2023-03-29T19:36:44.139Z,6.63
2023-03-29T19:39:35.708Z,6.66
2023-03-29T19:42:26.692Z,6.68
2023-03-29T19:45:23.528Z,6.66
2023-03-29T19:48:21.773Z,6.60
2023-03-29T19:51:16.841Z,6.57
2023-03-29T19:54:07.991Z,6.53
2023-03-29T19:56:58.683Z,6.48
2023-03-29T19:59:49.141Z,6.45
2023-03-29T20:02:40.089Z,6.43
2023-03-29T20:05:30.381Z,6.43
2023-03-29T20:08:21.113Z,6.39
2023-03-29T20:11:11.802Z,6.37
2023-03-29T20:14:02.445Z,6.30
2023-03-29T20:16:54.160Z,6.21
2023-03-29T20:19:45.085Z,6.14
2023-03-29T20:22:38.096Z,6.08
2023-03-29T20:25:28.753Z,6.07
2023-03-29T20:28:19.783Z,6.05
2023-03-29T20:31:11.839Z,6.00
2023-03-29T20:34:02.637Z,5.94
2023-03-29T20:36:55.222Z,5.91
2023-03-29T20:39:46.301Z,5.87
2023-03-29T20:42:39.394Z,5.81
2023-03-29T20:45:33.220Z,5.79
2023-03-29T20:48:31.345Z,5.75
2023-03-29T20:51:21.575Z,5.72
2023-03-29T20:54:12.047Z,5.72
2023-03-29T20:57:02.411Z,5.70
2023-03-29T20:59:53.327Z,5.68
2023-03-29T21:02:44.263Z,5.64
2023-03-29T21:05:34.926Z,5.64
2023-03-29T21:08:28.899Z,5.64
2023-03-29T21:11:19.945Z,5.62
2023-03-29T21:14:10.605Z,5.61
2023-03-29T21:17:01.519Z,5.60
2023-03-29T21:19:53.213Z,5.61
2023-03-29T21:22:44.146Z,5.62
2023-03-29T21:25:34.770Z,5.61
2023-03-29T21:28:25.616Z,5.62
2023-03-29T21:31:16.142Z,5.62
2023-03-29T21:34:06.512Z,5.60
2023-03-29T21:36:57.278Z,5.57
2023-03-29T21:39:48.050Z,5.50
2023-03-29T21:42:38.871Z,5.49
2023-03-29T21:45:30.069Z,5.44
2023-03-29T21:48:20.739Z,5.38
2023-03-29T21:51:11.665Z,5.35
2023-03-29T21:54:02.357Z,5.32
2023-03-29T21:56:53.016Z,5.30
2023-03-29T21:59:43.583Z,5.28
2023-03-29T22:02:34.209Z,5.25
2023-03-29T22:05:26.131Z,5.23
2023-03-29T22:08:19.081Z,5.25
2023-03-29T22:11:10.993Z,5.28
2023-03-29T22:14:01.934Z,5.29
2023-03-29T22:16:52.757Z,5.28
2023-03-29T22:19:43.753Z,5.26
2023-03-29T22:22:35.153Z,5.24
2023-03-29T22:25:25.713Z,5.21
2023-03-29T22:28:16.395Z,5.20
2023-03-29T22:31:07.599Z,5.21
2023-03-29T22:34:00.717Z,5.23
2023-03-29T22:36:51.804Z,5.23
2023-03-29T22:39:42.396Z,5.24
2023-03-29T22:42:32.804Z,5.25
2023-03-29T22:45:23.682Z,5.23
2023-03-29T22:48:14.389Z,5.22
2023-03-29T22:51:05.689Z,5.21
2023-03-29T22:53:56.639Z,5.18
2023-03-29T22:56:47.159Z,5.16
2023-03-29T22:59:37.671Z,5.14
2023-03-29T23:02:28.546Z,5.14
2023-03-29T23:05:19.601Z,5.15
2023-03-29T23:08:10.421Z,5.14
2023-03-29T23:11:01.439Z,5.11
2023-03-29T23:13:52.664Z,5.08
2023-03-29T23:16:43.564Z,5.05
2023-03-29T23:19:34.069Z,5.00
2023-03-29T23:22:24.445Z,5.00
2023-03-29T23:25:15.068Z,5.00
2023-03-29T23:28:06.598Z,4.99
2023-03-29T23:31:02.912Z,4.99
2023-03-29T23:33:54.140Z,5.01
2023-03-29T23:36:44.600Z,5.02
2023-03-29T23:39:35.844Z,5.02
2023-03-29T23:42:26.712Z,5.02
2023-03-29T23:45:18.911Z,5.05
2023-03-29T23:48:09.794Z,5.07
2023-03-29T23:51:01.353Z,5.11
2023-03-29T23:53:52.374Z,5.16
2023-03-29T23:56:43.107Z,5.18
2023-03-29T23:59:37.749Z,5.19
